EmailTwitter


Observations de surface / Québec / EGUB

Régions: Québec | Canada | États-Unis | Europe | France | UK | Elsewhere
Station
Affichage
Infos & localisation pour EGUB | Aide pour décoder les METARs

Observations prises le 2017-05-26 à 00H50 UTC à BENSON RAF, UK (EGUB)

Température: 15.0 Celsius

Point de rosée: 8.0 Celsius

Humidité relative: 63%

Vents: Est à 15 km/h ou 8 noeuds.

Pression au niveau moyen de la mer: 102.00 kilopascals.

Visibilité horizontale: 6.21 milles terrestres ou 9.94 kilomètres.

Observation METAR:

EGUB 260050Z AUTO 08008KT 9999 // NCD 15/08 Q1020=